createdAt,value
2023-03-26T00:01:36.301Z,64.93
2023-03-26T00:04:03.214Z,64.30
2023-03-26T00:06:31.305Z,64.37
2023-03-26T00:08:58.085Z,64.11
2023-03-26T00:11:26.470Z,63.85
2023-03-26T00:13:56.909Z,65.01
2023-03-26T00:16:24.533Z,64.82
2023-03-26T00:18:51.633Z,64.92
2023-03-26T00:21:21.223Z,64.38
2023-03-26T00:23:49.090Z,64.00
2023-03-26T00:26:17.490Z,63.66
2023-03-26T00:28:44.006Z,63.82
2023-03-26T00:31:14.404Z,63.78
2023-03-26T00:33:41.313Z,63.86
2023-03-26T00:36:10.461Z,63.60
2023-03-26T00:38:38.894Z,63.45
2023-03-26T00:41:07.120Z,62.98
2023-03-26T00:43:35.052Z,61.95
2023-03-26T00:46:02.202Z,62.37
2023-03-26T00:48:42.268Z,62.20
2023-03-26T00:51:11.390Z,61.38
2023-03-26T00:53:38.941Z,60.04
2023-03-26T00:56:06.513Z,60.20
2023-03-26T00:58:33.524Z,60.90
2023-03-26T01:01:13.675Z,61.00
2023-03-26T01:03:40.797Z,61.19
2023-03-26T01:06:09.107Z,61.44
2023-03-26T01:08:38.222Z,61.08
2023-03-26T01:11:13.981Z,61.77
2023-03-26T01:13:43.551Z,61.94
2023-03-26T01:16:20.203Z,62.13
2023-03-26T01:18:47.049Z,62.26
2023-03-26T01:21:14.462Z,62.52
2023-03-26T01:23:49.050Z,62.23
2023-03-26T01:26:27.963Z,61.87
2023-03-26T01:28:56.147Z,61.82
2023-03-26T01:31:39.594Z,62.51
2023-03-26T01:34:18.162Z,60.74
2023-03-26T01:36:57.728Z,59.95
2023-03-26T01:39:49.041Z,59.70
2023-03-26T01:42:17.495Z,59.36
2023-03-26T01:44:46.374Z,59.93
2023-03-26T01:47:12.919Z,59.70
2023-03-26T01:49:39.366Z,60.06
2023-03-26T01:52:14.499Z,60.21
2023-03-26T01:54:41.325Z,60.20
2023-03-26T01:57:16.805Z,60.73
2023-03-26T01:59:43.146Z,61.01
2023-03-26T02:02:24.973Z,60.31
2023-03-26T02:05:21.465Z,61.09
2023-03-26T02:07:50.884Z,60.90
2023-03-26T02:10:22.009Z,61.26
2023-03-26T02:12:48.478Z,61.49
2023-03-26T02:15:15.630Z,61.39
2023-03-26T02:17:42.123Z,61.27
2023-03-26T02:20:10.293Z,60.67
2023-03-26T02:22:40.939Z,58.76
2023-03-26T02:25:09.374Z,59.10
2023-03-26T02:27:36.966Z,59.91
2023-03-26T02:30:07.999Z,58.59
2023-03-26T02:32:35.021Z,58.03
2023-03-26T02:35:01.811Z,58.21
2023-03-26T02:37:30.370Z,58.69
2023-03-26T02:39:56.859Z,57.77
2023-03-26T02:42:23.311Z,57.91
2023-03-26T02:44:49.870Z,58.57
2023-03-26T02:47:16.348Z,58.17
2023-03-26T02:49:46.298Z,58.28
2023-03-26T02:52:12.917Z,58.36
2023-03-26T02:54:39.383Z,58.27
2023-03-26T02:57:05.899Z,57.98
2023-03-26T02:59:32.405Z,58.10
2023-03-26T03:01:58.876Z,57.87
2023-03-26T03:04:25.382Z,58.22
2023-03-26T03:06:57.373Z,57.86
2023-03-26T03:09:24.939Z,58.26
2023-03-26T03:11:54.216Z,58.61
2023-03-26T03:14:21.084Z,59.65
2023-03-26T03:16:47.646Z,59.11
2023-03-26T03:19:14.224Z,59.97
2023-03-26T03:21:40.946Z,59.52
2023-03-26T03:24:07.737Z,58.20
2023-03-26T03:26:34.237Z,57.90
2023-03-26T03:29:00.984Z,57.54
2023-03-26T03:31:28.209Z,57.83
2023-03-26T03:33:54.782Z,58.06
2023-03-26T03:36:27.866Z,57.12
2023-03-26T03:38:54.475Z,57.76
2023-03-26T03:41:21.022Z,56.65
2023-03-26T03:43:47.530Z,56.01
2023-03-26T03:46:14.022Z,54.77
2023-03-26T03:48:40.626Z,56.06
2023-03-26T03:51:07.143Z,56.22
2023-03-26T03:53:37.113Z,55.74
2023-03-26T03:56:04.491Z,54.20
2023-03-26T03:58:31.108Z,55.75
2023-03-26T04:01:00.817Z,55.06
2023-03-26T04:03:33.401Z,54.42
2023-03-26T04:06:01.099Z,54.62
2023-03-26T04:08:27.655Z,54.00
2023-03-26T04:10:54.127Z,53.57
2023-03-26T04:13:20.679Z,53.03
2023-03-26T04:15:47.263Z,53.98
2023-03-26T04:18:13.819Z,53.06
2023-03-26T04:20:46.247Z,53.58
2023-03-26T04:23:18.126Z,54.05
2023-03-26T04:25:48.366Z,55.51
2023-03-26T04:28:22.294Z,56.45
2023-03-26T04:30:48.879Z,57.53
2023-03-26T04:33:15.524Z,57.97
2023-03-26T04:35:44.357Z,60.18
2023-03-26T04:38:10.857Z,60.30
2023-03-26T04:40:37.316Z,59.49
2023-03-26T04:43:03.996Z,59.57
2023-03-26T04:45:31.184Z,59.74
2023-03-26T04:47:58.285Z,58.96
2023-03-26T04:50:25.455Z,59.99
2023-03-26T04:52:52.442Z,59.69
2023-03-26T04:55:37.481Z,57.32
2023-03-26T04:58:05.422Z,56.49
2023-03-26T05:00:31.984Z,57.18
2023-03-26T05:03:01.523Z,56.28
2023-03-26T05:05:28.342Z,57.43
2023-03-26T05:07:55.914Z,58.94
2023-03-26T05:10:22.592Z,60.37
2023-03-26T05:12:49.260Z,58.89
2023-03-26T05:15:15.994Z,58.97
2023-03-26T05:17:42.634Z,57.14
2023-03-26T05:20:20.772Z,56.87
2023-03-26T05:22:50.754Z,57.48
2023-03-26T05:25:17.752Z,56.51
2023-03-26T05:27:44.549Z,59.05
2023-03-26T05:30:16.753Z,59.43
2023-03-26T05:32:43.272Z,60.29
2023-03-26T05:35:09.920Z,59.99
2023-03-26T05:37:38.758Z,58.89
2023-03-26T05:40:11.479Z,59.64
2023-03-26T05:42:38.798Z,59.19
2023-03-26T05:45:07.273Z,58.77
2023-03-26T05:47:33.934Z,57.91
2023-03-26T05:50:00.616Z,58.15
2023-03-26T05:52:27.419Z,57.70
2023-03-26T05:54:53.938Z,58.69
2023-03-26T05:57:22.282Z,58.11
2023-03-26T05:59:48.740Z,56.62
2023-03-26T06:02:15.236Z,57.66
2023-03-26T06:04:42.743Z,58.67
2023-03-26T06:07:10.014Z,57.01
2023-03-26T06:09:40.858Z,58.79
2023-03-26T06:12:08.367Z,59.77
2023-03-26T06:14:35.216Z,62.99
2023-03-26T06:17:01.912Z,63.01
2023-03-26T06:19:28.377Z,60.80
2023-03-26T06:21:54.830Z,60.15
2023-03-26T06:24:21.809Z,59.84
2023-03-26T06:26:48.313Z,62.73
2023-03-26T06:29:14.844Z,63.20
2023-03-26T06:31:41.565Z,61.40
2023-03-26T06:34:08.115Z,60.26
2023-03-26T06:36:34.614Z,61.27
2023-03-26T06:39:01.073Z,62.03
2023-03-26T06:41:34.820Z,63.58
2023-03-26T06:44:01.373Z,63.38
2023-03-26T06:46:27.948Z,65.12
2023-03-26T06:48:54.485Z,63.83
2023-03-26T06:51:20.977Z,65.64
2023-03-26T06:53:47.444Z,65.37
2023-03-26T06:56:13.908Z,64.43
2023-03-26T06:58:40.678Z,65.38
2023-03-26T07:01:07.244Z,65.59
2023-03-26T07:03:33.829Z,65.84
2023-03-26T07:06:00.442Z,63.35
2023-03-26T07:08:26.967Z,64.95
2023-03-26T07:10:53.582Z,65.74
2023-03-26T07:13:20.369Z,66.00
2023-03-26T07:15:48.869Z,64.66
2023-03-26T07:18:15.642Z,64.88
2023-03-26T07:20:43.591Z,64.80
2023-03-26T07:23:10.904Z,65.97
2023-03-26T07:25:37.655Z,65.86
2023-03-26T07:28:33.410Z,66.28
2023-03-26T07:31:03.427Z,66.35
2023-03-26T07:33:46.866Z,65.82
2023-03-26T07:36:19.439Z,66.10
2023-03-26T07:39:04.096Z,65.00
2023-03-26T07:41:48.225Z,64.36
2023-03-26T07:44:38.500Z,64.89
2023-03-26T07:47:25.489Z,64.00
2023-03-26T07:49:55.597Z,62.68
2023-03-26T07:52:22.288Z,61.50
2023-03-26T07:54:49.110Z,60.04
2023-03-26T07:57:32.062Z,60.68
2023-03-26T08:00:22.101Z,58.79
2023-03-26T08:03:03.710Z,58.44
2023-03-26T08:05:44.290Z,58.21
2023-03-26T08:08:31.767Z,56.22
2023-03-26T08:11:24.046Z,56.07
2023-03-26T08:13:57.088Z,57.81
2023-03-26T08:16:26.796Z,55.36
2023-03-26T08:19:30.799Z,54.11
2023-03-26T08:22:11.141Z,54.02
2023-03-26T08:24:43.602Z,52.08
2023-03-26T08:27:31.683Z,51.89
2023-03-26T08:30:09.324Z,50.51
2023-03-26T08:32:35.995Z,49.37
2023-03-26T08:35:03.970Z,50.77
2023-03-26T08:37:30.584Z,50.26
2023-03-26T08:39:57.447Z,51.43
2023-03-26T08:42:37.491Z,49.10
2023-03-26T08:45:42.876Z,50.12
2023-03-26T08:48:15.450Z,49.65
2023-03-26T08:51:23.135Z,48.38
2023-03-26T08:54:18.345Z,45.83
2023-03-26T08:57:03.732Z,44.41
2023-03-26T08:59:54.625Z,44.43
2023-03-26T09:02:37.412Z,42.85
2023-03-26T09:05:37.994Z,43.91
2023-03-26T09:08:13.381Z,42.22
2023-03-26T09:10:52.238Z,42.70
2023-03-26T09:13:43.379Z,41.80
2023-03-26T09:16:26.673Z,41.73
2023-03-26T09:19:34.883Z,42.06
2023-03-26T09:22:05.793Z,43.21
2023-03-26T09:25:06.861Z,44.43
2023-03-26T09:27:46.149Z,44.50
2023-03-26T09:30:31.492Z,46.05
2023-03-26T09:33:16.502Z,44.87
2023-03-26T09:35:52.850Z,45.40
2023-03-26T09:38:50.718Z,45.04
2023-03-26T09:41:18.670Z,44.79
2023-03-26T09:43:48.825Z,43.98
2023-03-26T09:46:52.178Z,43.50
2023-03-26T09:49:24.692Z,43.83
2023-03-26T09:51:54.116Z,44.44
2023-03-26T09:54:39.317Z,44.88
2023-03-26T09:57:39.800Z,45.59
2023-03-26T10:00:40.411Z,45.91
2023-03-26T10:03:28.163Z,45.99
2023-03-26T10:06:20.153Z,47.47
2023-03-26T10:08:55.786Z,47.03
2023-03-26T10:11:37.767Z,47.50
2023-03-26T10:14:26.997Z,48.24
2023-03-26T10:17:18.256Z,48.42
2023-03-26T10:20:09.546Z,48.12
2023-03-26T10:22:56.701Z,49.05
2023-03-26T10:25:50.202Z,47.02
2023-03-26T10:28:38.436Z,47.48
2023-03-26T10:31:07.594Z,46.86
2023-03-26T10:33:52.591Z,46.86
2023-03-26T10:36:19.001Z,46.10
2023-03-26T10:39:09.338Z,46.20
2023-03-26T10:41:40.181Z,44.85
2023-03-26T10:44:15.740Z,44.36
2023-03-26T10:47:08.374Z,43.41
2023-03-26T10:49:49.724Z,43.64
2023-03-26T10:52:20.867Z,44.12
2023-03-26T10:54:53.197Z,43.41
2023-03-26T10:57:38.318Z,43.26
2023-03-26T11:00:26.995Z,44.47
2023-03-26T11:03:17.294Z,45.10
2023-03-26T11:06:15.270Z,46.82
2023-03-26T11:08:50.758Z,49.21
2023-03-26T11:11:20.278Z,49.45
2023-03-26T11:14:00.984Z,51.11
2023-03-26T11:17:02.794Z,56.02
2023-03-26T11:19:41.380Z,57.82
2023-03-26T11:22:17.672Z,58.99
2023-03-26T11:24:59.340Z,64.80
2023-03-26T11:27:35.955Z,65.07
2023-03-26T11:30:02.344Z,64.70
2023-03-26T11:32:40.665Z,63.77
2023-03-26T11:35:39.679Z,62.26
2023-03-26T11:38:22.067Z,60.01
2023-03-26T11:40:51.104Z,60.39
2023-03-26T11:43:21.050Z,60.32
2023-03-26T11:45:47.985Z,59.83
2023-03-26T11:48:20.364Z,59.64
2023-03-26T11:50:55.961Z,61.34
2023-03-26T11:53:24.612Z,59.74
2023-03-26T11:56:14.743Z,56.15
2023-03-26T11:58:56.314Z,47.34
2023-03-26T12:01:32.669Z,39.42
2023-03-26T12:04:13.172Z,39.32
2023-03-26T12:06:39.814Z,38.19
2023-03-26T12:09:17.225Z,37.03
2023-03-26T12:11:45.079Z,39.27
2023-03-26T12:14:17.454Z,41.05
2023-03-26T12:18:24.225Z,47.18
2023-03-26T12:21:08.466Z,46.59
2023-03-26T12:23:52.410Z,44.02
2023-03-26T12:26:34.983Z,30.73
2023-03-26T12:29:06.913Z,27.80
2023-03-26T12:31:42.375Z,24.39
2023-03-26T12:34:22.996Z,22.82
2023-03-26T12:36:54.579Z,20.59
2023-03-26T12:40:06.646Z,19.80
2023-03-26T12:44:46.038Z,16.79
2023-03-26T12:45:16.828Z,19.02
2023-03-26T12:47:57.023Z,18.00
2023-03-26T12:50:44.524Z,22.38
2023-03-26T12:53:17.935Z,24.12
2023-03-26T12:55:51.101Z,27.29
2023-03-26T12:58:25.893Z,28.73
2023-03-26T13:01:21.648Z,29.89
2023-03-26T13:04:24.170Z,32.73
2023-03-26T13:07:00.678Z,35.30
2023-03-26T13:09:46.628Z,36.66
2023-03-26T13:12:22.941Z,38.48
2023-03-26T13:14:49.412Z,40.51
2023-03-26T13:17:23.622Z,42.36
2023-03-26T13:20:01.786Z,43.19
2023-03-26T13:22:56.314Z,43.96
2023-03-26T13:25:48.971Z,45.93
2023-03-26T13:28:32.301Z,49.64
2023-03-26T13:31:25.985Z,58.67
2023-03-26T13:34:27.642Z,66.11
2023-03-26T13:37:32.886Z,65.46
2023-03-26T13:40:14.504Z,67.10
2023-03-26T13:43:26.375Z,70.07
2023-03-26T13:46:05.114Z,71.58
2023-03-26T13:49:02.215Z,67.64
2023-03-26T13:52:02.176Z,69.87
2023-03-26T13:54:36.894Z,73.78
2023-03-26T13:57:25.300Z,73.12
2023-03-26T14:00:12.653Z,71.64
2023-03-26T14:02:40.561Z,73.97
2023-03-26T14:05:17.171Z,72.20
2023-03-26T14:07:47.035Z,71.03
2023-03-26T14:10:18.718Z,71.15
2023-03-26T14:12:57.251Z,73.10
2023-03-26T14:15:32.324Z,69.51
2023-03-26T14:18:07.751Z,72.46
2023-03-26T14:20:56.314Z,71.39
2023-03-26T14:23:31.034Z,68.49
2023-03-26T14:26:16.125Z,69.46
2023-03-26T14:29:23.931Z,65.03
2023-03-26T14:32:14.388Z,65.54
2023-03-26T14:35:05.703Z,61.34
2023-03-26T14:38:09.590Z,61.83
2023-03-26T14:40:51.182Z,60.78
2023-03-26T14:43:30.478Z,60.07
2023-03-26T14:46:03.180Z,61.89
2023-03-26T14:48:34.366Z,61.84
2023-03-26T14:51:28.573Z,59.23
2023-03-26T14:54:22.828Z,57.66
2023-03-26T14:57:03.939Z,57.33
2023-03-26T14:59:42.321Z,57.85
2023-03-26T15:02:30.813Z,60.28
2023-03-26T15:05:21.863Z,60.11
2023-03-26T15:08:03.428Z,57.01
2023-03-26T15:10:46.961Z,57.81
2023-03-26T15:13:51.175Z,58.63
2023-03-26T15:16:49.765Z,54.42
2023-03-26T15:19:53.636Z,51.77
2023-03-26T15:22:26.191Z,50.01
2023-03-26T15:25:20.499Z,46.08
2023-03-26T15:28:25.801Z,47.29
2023-03-26T15:31:18.498Z,46.96
2023-03-26T15:34:12.121Z,45.22
2023-03-26T15:36:50.955Z,46.55
2023-03-26T15:39:27.631Z,45.04
2023-03-26T15:42:19.627Z,42.71
2023-03-26T15:45:30.978Z,38.43
2023-03-26T15:48:12.931Z,30.91
2023-03-26T15:50:51.608Z,29.12
2023-03-26T15:53:23.908Z,27.59
2023-03-26T15:56:12.145Z,25.05
2023-03-26T15:59:00.493Z,25.01
2023-03-26T16:02:02.512Z,24.77
2023-03-26T16:04:54.571Z,30.03
2023-03-26T16:07:21.791Z,32.31
2023-03-26T16:09:51.336Z,34.41
2023-03-26T16:12:17.673Z,36.96
2023-03-26T16:14:44.112Z,38.68
2023-03-26T16:17:18.389Z,40.08
2023-03-26T16:20:08.154Z,39.45
2023-03-26T16:22:44.855Z,41.75
2023-03-26T16:25:26.859Z,41.74
2023-03-26T16:28:10.662Z,42.96
2023-03-26T16:30:37.468Z,44.12
2023-03-26T16:33:17.622Z,45.09
2023-03-26T16:36:04.650Z,45.19
2023-03-26T16:39:11.564Z,45.27
2023-03-26T16:41:49.991Z,44.59
2023-03-26T16:44:20.686Z,45.52
2023-03-26T16:47:20.547Z,47.24
2023-03-26T16:50:08.516Z,46.38
2023-03-26T16:53:05.242Z,48.57
2023-03-26T16:55:46.907Z,46.42
2023-03-26T16:58:21.942Z,48.22
2023-03-26T17:00:54.876Z,44.53
2023-03-26T17:03:44.797Z,44.76
2023-03-26T17:06:53.846Z,46.08
2023-03-26T17:09:20.416Z,46.16
2023-03-26T17:12:27.297Z,48.70
2023-03-26T17:15:32.798Z,51.34
2023-03-26T17:18:25.758Z,52.11
2023-03-26T17:21:14.485Z,49.06
2023-03-26T17:23:56.163Z,53.81
2023-03-26T17:26:42.170Z,50.97
2023-03-26T17:29:33.054Z,51.44
2023-03-26T17:32:00.734Z,48.57
2023-03-26T17:34:49.110Z,49.94
2023-03-26T17:37:21.541Z,53.54
2023-03-26T17:40:27.058Z,47.14
2023-03-26T17:43:10.040Z,48.43
2023-03-26T17:45:37.656Z,48.02
2023-03-26T17:48:15.670Z,48.34
2023-03-26T17:50:46.217Z,49.37
2023-03-26T17:53:16.773Z,48.20
2023-03-26T17:55:43.667Z,48.86
2023-03-26T17:58:37.608Z,48.45
2023-03-26T18:01:34.813Z,51.53
2023-03-26T18:04:09.523Z,50.11
2023-03-26T18:07:00.303Z,50.36
2023-03-26T18:09:44.960Z,51.75
2023-03-26T18:12:52.902Z,52.63
2023-03-26T18:15:31.888Z,53.20
2023-03-26T18:18:19.880Z,53.48
2023-03-26T18:20:47.858Z,53.67
2023-03-26T18:23:47.516Z,53.99
2023-03-26T18:26:16.332Z,57.35
2023-03-26T18:28:51.265Z,59.56
2023-03-26T18:31:26.026Z,61.37
2023-03-26T18:33:55.765Z,60.81
2023-03-26T18:36:24.468Z,60.60
2023-03-26T18:38:51.729Z,59.58
2023-03-26T18:41:31.122Z,60.54
2023-03-26T18:44:01.990Z,61.34
2023-03-26T18:46:28.618Z,60.73
2023-03-26T18:48:55.654Z,59.24
2023-03-26T18:51:23.301Z,59.67
2023-03-26T18:53:52.523Z,60.04
2023-03-26T18:56:48.375Z,60.20
2023-03-26T18:59:27.897Z,60.17
2023-03-26T19:02:04.373Z,60.50
2023-03-26T19:04:33.347Z,60.54
2023-03-26T19:07:00.360Z,59.92
2023-03-26T19:09:32.215Z,59.82
2023-03-26T19:12:06.421Z,59.76
2023-03-26T19:14:36.818Z,60.13
2023-03-26T19:17:04.734Z,61.03
2023-03-26T19:19:33.071Z,61.08
2023-03-26T19:21:59.852Z,61.32
2023-03-26T19:24:26.415Z,63.41
2023-03-26T19:26:52.865Z,63.39
2023-03-26T19:29:25.858Z,63.33
2023-03-26T19:31:52.770Z,62.88
2023-03-26T19:34:31.628Z,62.87
2023-03-26T19:37:00.998Z,63.40
2023-03-26T19:39:42.633Z,64.07
2023-03-26T19:42:14.184Z,64.59
2023-03-26T19:44:41.151Z,65.60
2023-03-26T19:47:14.139Z,65.51
2023-03-26T19:49:52.949Z,65.54
2023-03-26T19:52:39.527Z,65.90
2023-03-26T19:55:12.136Z,65.54
2023-03-26T19:57:38.849Z,65.88
2023-03-26T20:00:13.263Z,65.51
2023-03-26T20:02:45.295Z,65.08
2023-03-26T20:05:26.004Z,64.65
2023-03-26T20:07:52.847Z,64.68
2023-03-26T20:10:19.357Z,63.99
2023-03-26T20:12:45.914Z,63.78
2023-03-26T20:15:19.228Z,62.57
2023-03-26T20:17:47.080Z,65.24
2023-03-26T20:20:13.735Z,67.34
2023-03-26T20:22:40.287Z,67.90
2023-03-26T20:25:23.142Z,68.71
2023-03-26T20:27:49.620Z,69.60
2023-03-26T20:30:19.055Z,68.46
2023-03-26T20:32:45.821Z,68.79
2023-03-26T20:35:36.211Z,68.94
2023-03-26T20:38:03.126Z,69.02
2023-03-26T20:40:29.665Z,68.83
2023-03-26T20:42:56.467Z,69.39
2023-03-26T20:45:23.770Z,69.05
2023-03-26T20:47:50.537Z,69.67
2023-03-26T20:50:18.161Z,69.66
2023-03-26T20:52:44.663Z,70.09
2023-03-26T20:55:15.613Z,69.99
2023-03-26T20:57:42.944Z,70.13
2023-03-26T21:00:32.358Z,69.89
2023-03-26T21:02:58.921Z,68.64
2023-03-26T21:05:26.753Z,69.93
2023-03-26T21:07:54.198Z,70.04
2023-03-26T21:10:21.246Z,70.20
2023-03-26T21:12:47.738Z,70.68
2023-03-26T21:15:22.978Z,70.34
2023-03-26T21:17:51.762Z,70.34
2023-03-26T21:20:19.281Z,70.47
2023-03-26T21:23:12.082Z,70.07
2023-03-26T21:26:01.438Z,69.76
2023-03-26T21:28:42.565Z,71.06
2023-03-26T21:31:18.547Z,70.76
2023-03-26T21:33:45.852Z,70.81
2023-03-26T21:36:13.250Z,70.75
2023-03-26T21:38:40.301Z,70.42
2023-03-26T21:41:07.070Z,70.22
2023-03-26T21:43:33.564Z,71.20
2023-03-26T21:46:00.600Z,70.95
2023-03-26T21:48:28.880Z,70.86
2023-03-26T21:50:55.713Z,70.88
2023-03-26T21:53:24.293Z,71.62
2023-03-26T21:56:24.417Z,72.11
2023-03-26T21:59:00.823Z,71.84
2023-03-26T22:01:38.164Z,70.81
2023-03-26T22:04:16.915Z,72.07
2023-03-26T22:06:50.868Z,72.52
2023-03-26T22:09:20.687Z,71.50
2023-03-26T22:11:52.986Z,71.96
2023-03-26T22:14:20.646Z,71.75
2023-03-26T22:16:47.139Z,71.54
2023-03-26T22:19:13.675Z,72.07
2023-03-26T22:21:40.185Z,72.15
2023-03-26T22:24:07.539Z,72.80
2023-03-26T22:26:34.067Z,72.92
2023-03-26T22:29:00.908Z,73.51
2023-03-26T22:31:27.595Z,73.42
2023-03-26T22:33:54.480Z,74.16
2023-03-26T22:36:22.782Z,74.77
2023-03-26T22:38:53.016Z,73.29
2023-03-26T22:41:19.569Z,75.75
2023-03-26T22:43:46.388Z,75.69
2023-03-26T22:46:13.701Z,73.82
2023-03-26T22:48:40.734Z,73.71
2023-03-26T22:51:08.250Z,74.32
2023-03-26T22:53:34.827Z,73.26
2023-03-26T22:56:01.322Z,74.58
2023-03-26T22:58:28.340Z,74.10
2023-03-26T23:01:10.536Z,74.29
2023-03-26T23:03:37.130Z,74.64
2023-03-26T23:06:07.839Z,74.71
2023-03-26T23:08:35.004Z,75.01
2023-03-26T23:11:02.001Z,74.46
2023-03-26T23:13:28.466Z,74.23
2023-03-26T23:15:56.862Z,74.77
2023-03-26T23:18:23.714Z,74.24
2023-03-26T23:20:55.418Z,73.56
2023-03-26T23:23:27.212Z,73.00
2023-03-26T23:25:54.969Z,72.44
2023-03-26T23:28:23.846Z,73.41
2023-03-26T23:30:52.202Z,72.45
2023-03-26T23:33:24.596Z,71.76
2023-03-26T23:35:52.092Z,71.90
2023-03-26T23:38:19.371Z,72.09
2023-03-26T23:40:45.955Z,72.41
2023-03-26T23:43:24.382Z,71.90
2023-03-26T23:45:50.929Z,72.29
2023-03-26T23:48:22.209Z,71.89
2023-03-26T23:50:53.243Z,72.73
2023-03-26T23:53:31.210Z,72.11
2023-03-26T23:56:00.549Z,72.33
2023-03-26T23:58:30.033Z,72.19
